createdAt,value
2019-01-24T00:01:47.086Z,76.30
2019-01-24T00:04:16.888Z,78.70
2019-01-24T00:06:46.174Z,77.70
2019-01-24T00:09:15.183Z,79.40
2019-01-24T00:11:44.474Z,78.70
2019-01-24T00:14:13.498Z,78.80
2019-01-24T00:16:43.049Z,77.10
2019-01-24T00:19:12.389Z,77.70
2019-01-24T00:21:41.772Z,79.10
2019-01-24T00:24:10.969Z,78.00
2019-01-24T00:26:40.088Z,77.10
2019-01-24T00:29:09.116Z,77.10
2019-01-24T00:31:39.287Z,78.20
2019-01-24T00:34:09.112Z,75.80
2019-01-24T00:36:38.867Z,75.80
2019-01-24T00:39:08.972Z,76.90
2019-01-24T00:41:37.829Z,77.00
2019-01-24T00:44:07.389Z,78.10
2019-01-24T00:46:36.793Z,75.90
2019-01-24T00:49:06.208Z,74.20
2019-01-24T00:51:35.506Z,75.00
2019-01-24T00:54:05.023Z,76.10
2019-01-24T00:56:34.085Z,75.80
2019-01-24T00:59:03.434Z,76.40
2019-01-24T01:01:33.145Z,77.00
2019-01-24T01:04:02.429Z,77.10
2019-01-24T01:06:32.156Z,74.30
2019-01-24T01:09:01.717Z,74.30
2019-01-24T01:11:30.694Z,75.30
2019-01-24T01:13:59.880Z,77.60
2019-01-24T01:16:29.055Z,76.10
2019-01-24T01:18:58.482Z,74.50
2019-01-24T01:21:29.674Z,76.50
2019-01-24T01:23:59.045Z,77.00
2019-01-24T01:26:28.933Z,73.90
2019-01-24T01:28:58.710Z,75.40
2019-01-24T01:31:28.086Z,75.40
2019-01-24T01:33:57.834Z,74.30
2019-01-24T01:36:26.921Z,74.20
2019-01-24T01:38:56.984Z,73.30
2019-01-24T01:41:26.319Z,73.20
2019-01-24T01:43:55.400Z,75.50
2019-01-24T01:46:24.847Z,74.70
2019-01-24T01:48:54.284Z,75.90
2019-01-24T01:51:24.128Z,73.90
2019-01-24T01:53:53.109Z,75.40
2019-01-24T01:56:22.327Z,76.90
2019-01-24T01:58:51.718Z,76.90
2019-01-24T02:01:20.745Z,74.60
2019-01-24T02:03:50.209Z,73.80
2019-01-24T02:06:19.913Z,74.80
2019-01-24T02:08:51.696Z,72.70
2019-01-24T02:11:22.291Z,73.60
2019-01-24T02:13:51.338Z,72.40
2019-01-24T02:16:20.704Z,73.00
2019-01-24T02:18:50.115Z,73.90
2019-01-24T02:21:19.171Z,75.50
2019-01-24T02:23:48.170Z,73.30
2019-01-24T02:26:18.028Z,73.20
2019-01-24T02:28:47.448Z,74.10
2019-01-24T02:31:16.975Z,75.60
2019-01-24T02:33:46.330Z,76.90
2019-01-24T02:36:16.168Z,75.70
2019-01-24T02:38:45.781Z,74.90
2019-01-24T02:41:14.778Z,74.80
2019-01-24T02:43:44.409Z,72.70
2019-01-24T02:46:13.632Z,74.30
2019-01-24T02:48:43.166Z,73.80
2019-01-24T02:51:12.763Z,75.50
2019-01-24T02:53:42.540Z,74.90
2019-01-24T02:56:12.001Z,74.40
2019-01-24T02:58:41.157Z,73.30
2019-01-24T03:01:10.677Z,71.80
2019-01-24T03:03:39.749Z,72.50
2019-01-24T03:06:09.155Z,72.70
2019-01-24T03:08:38.969Z,74.70
2019-01-24T03:11:08.129Z,72.80
2019-01-24T03:13:37.771Z,75.60
2019-01-24T03:16:07.411Z,75.70
2019-01-24T03:18:37.889Z,74.50
2019-01-24T03:21:07.619Z,73.50
2019-01-24T03:23:37.094Z,71.30
2019-01-24T03:26:06.832Z,70.60
2019-01-24T03:28:36.773Z,68.80
2019-01-24T03:31:06.186Z,71.60
2019-01-24T03:33:36.087Z,70.30
2019-01-24T03:36:05.278Z,69.70
2019-01-24T03:38:34.695Z,71.00
2019-01-24T03:41:05.783Z,68.40
2019-01-24T03:43:35.513Z,71.50
2019-01-24T03:46:04.655Z,70.60
2019-01-24T03:48:34.153Z,71.20
2019-01-24T03:51:03.214Z,73.30
2019-01-24T03:53:33.031Z,75.00
2019-01-24T03:56:02.106Z,71.80
2019-01-24T03:58:31.278Z,71.40
2019-01-24T04:01:01.048Z,70.00
2019-01-24T04:03:30.510Z,71.60
2019-01-24T04:05:59.623Z,75.20
2019-01-24T04:08:28.637Z,72.30
2019-01-24T04:10:58.831Z,75.00
2019-01-24T04:13:28.694Z,70.60
2019-01-24T04:15:57.791Z,72.50
2019-01-24T04:18:27.506Z,70.60
2019-01-24T04:20:57.166Z,71.60
2019-01-24T04:23:29.075Z,70.60
2019-01-24T04:25:58.309Z,71.80
2019-01-24T04:28:27.697Z,71.00
2019-01-24T04:30:56.768Z,71.40
2019-01-24T04:33:26.034Z,71.60
2019-01-24T04:35:55.465Z,71.80
2019-01-24T04:38:24.846Z,72.70
2019-01-24T04:40:54.279Z,72.50
2019-01-24T04:43:23.808Z,74.50
2019-01-24T04:45:53.177Z,72.80
2019-01-24T04:48:23.318Z,74.40
2019-01-24T04:50:52.845Z,74.30
2019-01-24T04:53:22.947Z,74.60
2019-01-24T04:55:52.342Z,75.00
2019-01-24T04:58:21.438Z,73.50
2019-01-24T05:00:51.713Z,71.80
2019-01-24T05:03:21.048Z,72.10
2019-01-24T05:05:50.819Z,72.70
2019-01-24T05:08:20.295Z,73.00
2019-01-24T05:10:49.449Z,72.50
2019-01-24T05:13:19.201Z,73.30
2019-01-24T05:15:48.413Z,75.20
2019-01-24T05:18:18.352Z,75.90
2019-01-24T05:20:48.334Z,75.20
2019-01-24T05:23:18.189Z,74.40
2019-01-24T05:25:47.641Z,76.30
2019-01-24T05:28:17.481Z,73.80
2019-01-24T05:30:47.465Z,75.50
2019-01-24T05:33:17.061Z,76.90
2019-01-24T05:35:46.491Z,77.10
2019-01-24T05:38:15.478Z,76.80
2019-01-24T05:40:46.281Z,74.60
2019-01-24T05:43:16.416Z,77.60
2019-01-24T05:45:46.712Z,73.00
2019-01-24T05:48:16.407Z,73.30
2019-01-24T05:50:46.276Z,74.50
2019-01-24T05:53:15.694Z,75.60
2019-01-24T05:55:45.704Z,77.10
2019-01-24T05:58:15.054Z,74.70
2019-01-24T06:00:45.677Z,75.70
2019-01-24T06:03:14.885Z,76.70
2019-01-24T06:05:46.747Z,75.40
2019-01-24T06:08:17.239Z,76.10
2019-01-24T06:10:46.709Z,76.30
2019-01-24T06:13:15.989Z,76.00
2019-01-24T06:15:45.796Z,75.70
2019-01-24T06:18:15.953Z,73.60
2019-01-24T06:20:45.494Z,75.30
2019-01-24T06:23:15.160Z,74.00
2019-01-24T06:25:44.980Z,73.40
2019-01-24T06:28:14.698Z,74.10
2019-01-24T06:30:44.178Z,72.40
2019-01-24T06:33:13.503Z,74.20
2019-01-24T06:35:48.659Z,75.20
2019-01-24T06:38:14.577Z,77.80
2019-01-24T06:40:44.529Z,75.40
2019-01-24T06:43:13.759Z,74.10
2019-01-24T06:45:45.570Z,77.10
2019-01-24T06:48:15.168Z,77.20
2019-01-24T06:50:44.859Z,75.00
2019-01-24T06:53:13.958Z,74.20
2019-01-24T06:55:43.431Z,75.60
2019-01-24T06:58:12.742Z,75.10
2019-01-24T07:00:43.007Z,73.00
2019-01-24T07:03:12.569Z,72.20
2019-01-24T07:05:41.633Z,75.50
2019-01-24T07:08:11.063Z,73.90
2019-01-24T07:10:40.568Z,75.40
2019-01-24T07:13:09.675Z,74.00
2019-01-24T07:15:39.463Z,75.20
2019-01-24T07:18:08.495Z,74.40
2019-01-24T07:20:37.643Z,73.50
2019-01-24T07:23:07.686Z,73.10
2019-01-24T07:25:36.746Z,73.40
2019-01-24T07:28:07.273Z,75.20
2019-01-24T07:30:37.570Z,76.30
2019-01-24T07:33:07.286Z,73.80
2019-01-24T07:35:36.735Z,73.80
2019-01-24T07:38:06.582Z,74.00
2019-01-24T07:40:36.108Z,73.50
2019-01-24T07:43:05.442Z,72.90
2019-01-24T07:45:37.539Z,74.60
2019-01-24T07:48:07.135Z,77.20
2019-01-24T07:50:36.954Z,74.60
2019-01-24T07:53:08.010Z,73.00
2019-01-24T07:55:37.385Z,76.90
2019-01-24T07:58:07.087Z,79.10
2019-01-24T08:00:36.890Z,74.20
2019-01-24T08:03:06.504Z,74.40
2019-01-24T08:05:36.010Z,75.00
2019-01-24T08:08:05.980Z,74.00
2019-01-24T08:10:35.429Z,73.20
2019-01-24T08:13:05.455Z,73.90
2019-01-24T08:15:34.937Z,75.30
2019-01-24T08:18:05.812Z,74.60
2019-01-24T08:20:36.914Z,72.90
2019-01-24T08:23:06.030Z,72.40
2019-01-24T08:25:35.462Z,74.80
2019-01-24T08:28:05.074Z,76.40
2019-01-24T08:30:35.207Z,76.70
2019-01-24T08:33:04.598Z,75.80
2019-01-24T08:35:34.387Z,73.50
2019-01-24T08:38:04.986Z,74.00
2019-01-24T08:40:34.722Z,74.50
2019-01-24T08:43:04.887Z,75.40
2019-01-24T08:45:34.367Z,76.10
2019-01-24T08:48:04.123Z,72.80
2019-01-24T08:50:33.727Z,72.90
2019-01-24T08:53:03.378Z,72.60
2019-01-24T08:55:38.490Z,74.10
2019-01-24T08:58:08.687Z,73.70
2019-01-24T09:00:37.989Z,74.80
2019-01-24T09:03:07.887Z,72.80
2019-01-24T09:05:37.416Z,72.30
2019-01-24T09:08:07.739Z,71.40
2019-01-24T09:10:38.987Z,70.50
2019-01-24T09:13:09.087Z,72.20
2019-01-24T09:15:38.517Z,71.30
2019-01-24T09:18:08.458Z,73.60
2019-01-24T09:20:38.337Z,72.80
2019-01-24T09:23:08.629Z,72.00
2019-01-24T09:25:38.160Z,72.10
2019-01-24T09:28:14.584Z,71.50
2019-01-24T09:30:39.548Z,72.30
2019-01-24T09:33:09.759Z,73.40
2019-01-24T09:35:39.048Z,66.40
2019-01-24T09:38:10.513Z,65.60
2019-01-24T09:40:40.221Z,66.40
2019-01-24T09:43:10.196Z,68.00
2019-01-24T09:45:39.877Z,70.90
2019-01-24T09:48:10.049Z,71.40
2019-01-24T09:50:40.022Z,72.00
2019-01-24T09:53:10.162Z,69.80
2019-01-24T09:55:39.712Z,61.40
2019-01-24T09:58:09.725Z,58.30
2019-01-24T10:00:39.079Z,55.90
2019-01-24T10:03:08.433Z,51.50
2019-01-24T10:05:37.876Z,52.50
2019-01-24T10:08:08.436Z,50.70
2019-01-24T10:10:38.420Z,50.90
2019-01-24T10:13:08.242Z,46.80
2019-01-24T10:15:39.351Z,47.60
2019-01-24T10:18:08.668Z,49.20
2019-01-24T10:20:38.380Z,51.90
2019-01-24T10:23:07.526Z,50.40
2019-01-24T10:25:38.684Z,49.60
2019-01-24T10:28:09.047Z,52.70
2019-01-24T10:30:42.756Z,56.00
2019-01-24T10:33:09.760Z,56.10
2019-01-24T10:35:39.565Z,56.30
2019-01-24T10:38:09.818Z,54.60
2019-01-24T10:40:38.886Z,55.60
2019-01-24T10:43:10.047Z,59.20
2019-01-24T10:45:39.128Z,63.30
2019-01-24T10:48:08.961Z,61.00
2019-01-24T10:50:38.285Z,62.90
2019-01-24T10:53:07.865Z,64.70
2019-01-24T10:55:37.676Z,62.10
2019-01-24T10:58:07.680Z,61.00
2019-01-24T11:00:39.517Z,64.00
2019-01-24T11:03:11.349Z,62.60
2019-01-24T11:05:40.487Z,62.00
2019-01-24T11:08:09.570Z,59.20
2019-01-24T11:10:39.753Z,58.70
2019-01-24T11:13:09.173Z,61.50
2019-01-24T11:15:38.822Z,65.40
2019-01-24T11:18:08.808Z,58.80
2019-01-24T11:20:38.571Z,59.10
2019-01-24T11:23:09.059Z,59.30
2019-01-24T11:25:38.450Z,59.10
2019-01-24T11:28:09.207Z,60.10
2019-01-24T11:30:39.003Z,61.00
2019-01-24T11:33:08.749Z,64.40
2019-01-24T11:35:38.446Z,65.80
2019-01-24T11:38:08.120Z,68.30
2019-01-24T11:40:37.534Z,65.50
2019-01-24T11:43:07.434Z,63.50
2019-01-24T11:45:41.346Z,61.20
2019-01-24T11:48:12.461Z,64.80
2019-01-24T11:50:42.084Z,65.80
2019-01-24T11:53:13.249Z,63.10
2019-01-24T11:55:43.024Z,62.80
2019-01-24T11:58:12.462Z,61.60
2019-01-24T12:00:46.401Z,61.80
2019-01-24T12:03:16.100Z,63.00
2019-01-24T12:05:48.483Z,65.50
2019-01-24T12:08:18.451Z,62.20
2019-01-24T12:10:51.349Z,63.00
2019-01-24T12:13:21.132Z,61.80
2019-01-24T12:15:51.501Z,61.80
2019-01-24T12:18:21.129Z,65.60
2019-01-24T12:20:53.920Z,62.60
2019-01-24T12:23:23.153Z,62.30
2019-01-24T12:25:53.268Z,65.40
2019-01-24T12:28:24.341Z,67.60
2019-01-24T12:30:53.677Z,61.70
2019-01-24T12:33:22.950Z,63.60
2019-01-24T12:35:52.239Z,67.00
2019-01-24T12:38:22.239Z,68.30
2019-01-24T12:40:51.395Z,66.90
2019-01-24T12:43:21.703Z,64.60
2019-01-24T12:45:52.825Z,65.80
2019-01-24T12:48:24.473Z,66.90
2019-01-24T12:50:56.616Z,66.50
2019-01-24T12:53:26.165Z,69.10
2019-01-24T12:55:55.560Z,67.10
2019-01-24T12:58:25.856Z,66.50
2019-01-24T13:00:55.439Z,69.00
2019-01-24T13:03:25.515Z,65.30
2019-01-24T13:05:55.241Z,66.80
2019-01-24T13:08:25.253Z,68.00
2019-01-24T13:10:57.454Z,65.60
2019-01-24T13:13:27.385Z,67.50
2019-01-24T13:15:57.796Z,68.90
2019-01-24T13:18:27.179Z,68.60
2019-01-24T13:20:56.610Z,63.30
2019-01-24T13:23:26.228Z,64.50
2019-01-24T13:25:56.547Z,65.40
2019-01-24T13:28:26.338Z,65.40
2019-01-24T13:30:58.938Z,64.40
2019-01-24T13:33:28.860Z,60.40
2019-01-24T13:35:59.045Z,64.20
2019-01-24T13:38:28.578Z,63.50
2019-01-24T13:40:58.064Z,66.00
2019-01-24T13:43:27.743Z,63.10
2019-01-24T13:45:57.893Z,60.50
2019-01-24T13:48:27.412Z,61.90
2019-01-24T13:50:56.558Z,65.20
2019-01-24T13:53:27.490Z,63.40
2019-01-24T13:55:56.613Z,65.20
2019-01-24T13:58:27.235Z,60.90
2019-01-24T14:00:56.839Z,66.90
2019-01-24T14:04:05.534Z,62.80
2019-01-24T14:06:36.406Z,61.40
2019-01-24T14:09:12.199Z,61.00
2019-01-24T14:11:42.718Z,63.10
2019-01-24T14:14:18.340Z,62.00
2019-01-24T14:16:48.805Z,62.20
2019-01-24T14:19:23.075Z,67.40
2019-01-24T14:21:56.015Z,64.60
2019-01-24T14:24:26.908Z,61.20
2019-01-24T14:27:01.963Z,61.30
2019-01-24T14:29:31.274Z,63.10
2019-01-24T14:32:00.645Z,66.80
2019-01-24T14:34:33.238Z,62.40
2019-01-24T14:37:06.943Z,64.30
2019-01-24T14:39:39.199Z,67.20
2019-01-24T14:42:13.011Z,66.90
2019-01-24T14:44:42.863Z,66.20
2019-01-24T14:47:12.990Z,63.80
2019-01-24T14:49:45.734Z,62.10
2019-01-24T14:52:17.756Z,67.30
2019-01-24T14:54:48.192Z,66.10
2019-01-24T14:57:19.027Z,68.70
2019-01-24T14:59:48.563Z,64.90
2019-01-24T15:02:21.314Z,68.60
2019-01-24T15:04:51.462Z,68.70
2019-01-24T15:07:21.698Z,64.90
2019-01-24T15:09:52.331Z,66.50
2019-01-24T15:12:23.712Z,62.70
2019-01-24T15:14:53.165Z,64.00
2019-01-24T15:17:22.979Z,63.30
2019-01-24T15:19:52.451Z,63.70
2019-01-24T15:22:21.663Z,64.40
2019-01-24T15:24:51.446Z,65.60
2019-01-24T15:27:21.529Z,65.10
2019-01-24T15:29:52.297Z,67.50
2019-01-24T15:32:21.829Z,64.90
2019-01-24T15:34:53.650Z,67.20
2019-01-24T15:37:23.099Z,68.40
2019-01-24T15:39:52.311Z,67.20
2019-01-24T15:42:21.781Z,67.60
2019-01-24T15:44:50.816Z,64.40
2019-01-24T15:47:20.114Z,65.90
2019-01-24T15:49:49.365Z,64.10
2019-01-24T15:52:19.192Z,65.90
2019-01-24T15:54:49.081Z,69.80
2019-01-24T15:57:18.516Z,65.90
2019-01-24T15:59:48.285Z,66.60
2019-01-24T16:02:17.392Z,69.30
2019-01-24T16:04:46.894Z,66.40
2019-01-24T16:07:16.170Z,67.20
2019-01-24T16:09:45.643Z,68.20
2019-01-24T16:12:14.728Z,71.00
2019-01-24T16:14:44.759Z,68.20
2019-01-24T16:17:14.513Z,69.80
2019-01-24T16:19:43.934Z,67.80
2019-01-24T16:22:13.392Z,68.10
2019-01-24T16:24:42.574Z,70.70
2019-01-24T16:27:12.248Z,75.20
2019-01-24T16:29:41.734Z,74.60
2019-01-24T16:32:11.343Z,71.50
2019-01-24T16:34:40.859Z,72.50
2019-01-24T16:37:10.383Z,70.80
2019-01-24T16:39:39.749Z,72.70
2019-01-24T16:42:08.861Z,74.00
2019-01-24T16:44:38.080Z,75.10
2019-01-24T16:47:07.336Z,76.90
2019-01-24T16:49:36.897Z,79.30
2019-01-24T16:52:08.158Z,79.00
2019-01-24T16:54:38.099Z,81.80
2019-01-24T16:57:07.481Z,84.10
2019-01-24T16:59:36.742Z,83.80
2019-01-24T17:02:06.721Z,83.40
2019-01-24T17:04:36.402Z,83.70
2019-01-24T17:07:05.635Z,84.70
2019-01-24T17:09:35.382Z,85.80
2019-01-24T17:12:05.019Z,85.20
2019-01-24T17:14:34.264Z,86.30
2019-01-24T17:17:03.957Z,86.40
2019-01-24T17:19:33.268Z,87.30
2019-01-24T17:22:03.347Z,86.50
2019-01-24T17:24:32.603Z,87.20
2019-01-24T17:27:02.057Z,87.60
2019-01-24T17:29:31.487Z,87.30
2019-01-24T17:32:01.979Z,87.80
2019-01-24T17:34:49.031Z,88.90
2019-01-24T17:37:18.733Z,89.20
2019-01-24T17:39:50.074Z,89.90
2019-01-24T17:42:19.543Z,89.80
2019-01-24T17:44:48.988Z,89.00
2019-01-24T17:47:18.241Z,86.70
2019-01-24T17:49:47.889Z,87.00
2019-01-24T17:52:17.049Z,86.10
2019-01-24T17:54:46.256Z,87.60
2019-01-24T17:57:18.606Z,87.70
2019-01-24T17:59:48.731Z,87.80
2019-01-24T18:02:18.236Z,86.00
2019-01-24T18:04:48.014Z,87.60
2019-01-24T18:07:17.565Z,86.20
2019-01-24T18:09:48.338Z,87.70
2019-01-24T18:12:18.417Z,87.00
2019-01-24T18:14:48.129Z,87.00
2019-01-24T18:17:17.928Z,87.10
2019-01-24T18:19:47.152Z,88.40
2019-01-24T18:22:16.463Z,87.60
2019-01-24T18:24:45.664Z,85.80
2019-01-24T18:27:14.898Z,85.90
2019-01-24T18:29:44.735Z,86.00
2019-01-24T18:32:13.844Z,86.90
2019-01-24T18:34:44.207Z,87.40
2019-01-24T18:37:13.415Z,86.90
2019-01-24T18:39:43.098Z,86.30
2019-01-24T18:42:13.016Z,85.20
2019-01-24T18:44:42.807Z,84.80
2019-01-24T18:47:13.658Z,85.40
2019-01-24T18:49:43.235Z,84.50
2019-01-24T18:52:12.584Z,84.70
2019-01-24T18:54:42.228Z,84.70
2019-01-24T18:57:11.445Z,85.30
2019-01-24T18:59:41.207Z,83.80
2019-01-24T19:02:10.643Z,84.30
2019-01-24T19:04:40.553Z,85.30
2019-01-24T19:07:09.931Z,84.00
2019-01-24T19:09:39.502Z,83.60
2019-01-24T19:12:08.692Z,85.90
2019-01-24T19:14:37.913Z,85.70
2019-01-24T19:17:07.445Z,83.50
2019-01-24T19:19:36.950Z,82.50
2019-01-24T19:22:06.058Z,84.90
2019-01-24T19:24:35.478Z,85.20
2019-01-24T19:27:05.108Z,84.40
2019-01-24T19:29:34.590Z,81.50
2019-01-24T19:32:03.701Z,81.80
2019-01-24T19:34:32.823Z,83.10
2019-01-24T19:37:02.192Z,82.10
2019-01-24T19:39:32.508Z,84.80
2019-01-24T19:42:01.592Z,82.40
2019-01-24T19:44:31.840Z,81.80
2019-01-24T19:47:02.918Z,81.30
2019-01-24T19:49:31.983Z,83.00
2019-01-24T19:52:01.882Z,85.20
2019-01-24T19:54:30.997Z,82.00
2019-01-24T19:57:00.375Z,81.50
2019-01-24T19:59:30.122Z,81.00
2019-01-24T20:02:00.077Z,81.10
2019-01-24T20:04:30.163Z,81.00
2019-01-24T20:06:59.656Z,84.70
2019-01-24T20:09:29.024Z,80.50
2019-01-24T20:11:58.621Z,83.90
2019-01-24T20:14:27.943Z,84.40
2019-01-24T20:16:58.622Z,81.70
2019-01-24T20:19:27.671Z,82.40
2019-01-24T20:22:01.247Z,83.80
2019-01-24T20:24:33.878Z,82.40
2019-01-24T20:27:03.275Z,82.00
2019-01-24T20:29:32.330Z,81.50
2019-01-24T20:32:02.368Z,83.80
2019-01-24T20:34:31.500Z,85.10
2019-01-24T20:37:01.100Z,85.20
2019-01-24T20:39:30.870Z,85.20
2019-01-24T20:42:01.714Z,87.20
2019-01-24T20:44:31.456Z,87.30
2019-01-24T20:47:01.065Z,85.20
2019-01-24T20:49:30.335Z,86.60
2019-01-24T20:51:59.474Z,86.40
2019-01-24T20:54:29.866Z,83.30
2019-01-24T20:56:59.329Z,83.80
2019-01-24T20:59:28.767Z,85.60
2019-01-24T21:01:58.163Z,85.80
2019-01-24T21:04:27.517Z,85.40
2019-01-24T21:06:56.951Z,83.90
2019-01-24T21:09:26.133Z,84.80
2019-01-24T21:11:55.490Z,85.00
2019-01-24T21:14:28.834Z,82.30
2019-01-24T21:16:58.574Z,82.90
2019-01-24T21:19:29.414Z,82.80
2019-01-24T21:21:59.331Z,82.00
2019-01-24T21:24:29.195Z,82.60
2019-01-24T21:26:58.242Z,83.50
2019-01-24T21:29:28.118Z,80.20
2019-01-24T21:31:57.723Z,79.30
2019-01-24T21:34:28.536Z,77.70
2019-01-24T21:36:58.699Z,81.10
2019-01-24T21:39:28.315Z,78.40
2019-01-24T21:41:58.743Z,76.90
2019-01-24T21:44:28.048Z,79.10
2019-01-24T21:46:57.683Z,80.30
2019-01-24T21:49:27.337Z,82.50
2019-01-24T21:51:56.964Z,77.90
2019-01-24T21:54:26.375Z,79.00
2019-01-24T21:56:55.774Z,80.00
2019-01-24T21:59:24.927Z,81.60
2019-01-24T22:01:54.257Z,79.90
2019-01-24T22:04:23.580Z,81.80
2019-01-24T22:06:53.399Z,79.70
2019-01-24T22:09:29.029Z,81.80
2019-01-24T22:11:54.275Z,80.80
2019-01-24T22:14:24.259Z,79.50
2019-01-24T22:16:53.630Z,79.90
2019-01-24T22:19:25.756Z,81.40
2019-01-24T22:21:55.088Z,81.00
2019-01-24T22:24:27.566Z,81.50
2019-01-24T22:26:57.046Z,78.90
2019-01-24T22:29:26.538Z,79.50
2019-01-24T22:31:56.071Z,80.30
2019-01-24T22:34:25.411Z,79.30
2019-01-24T22:36:54.683Z,79.80
2019-01-24T22:39:24.686Z,80.90
2019-01-24T22:41:53.948Z,79.90
2019-01-24T22:44:24.051Z,79.30
2019-01-24T22:46:54.576Z,80.30
2019-01-24T22:49:23.669Z,82.30
2019-01-24T22:51:58.821Z,79.60
2019-01-24T22:54:28.464Z,79.50
2019-01-24T22:56:57.957Z,81.00
2019-01-24T22:59:27.541Z,79.70
2019-01-24T23:02:17.385Z,80.50
2019-01-24T23:04:47.353Z,81.10
2019-01-24T23:07:17.473Z,81.00
2019-01-24T23:09:47.243Z,80.60
2019-01-24T23:12:16.748Z,81.20
2019-01-24T23:14:46.482Z,83.00
2019-01-24T23:17:17.228Z,81.50
2019-01-24T23:19:47.582Z,79.90
2019-01-24T23:22:17.263Z,81.30
2019-01-24T23:24:46.883Z,78.90
2019-01-24T23:27:16.330Z,79.60
2019-01-24T23:29:46.821Z,79.60
2019-01-24T23:32:16.954Z,79.60
2019-01-24T23:34:46.109Z,79.50
2019-01-24T23:37:16.018Z,80.30
2019-01-24T23:39:51.328Z,80.60
2019-01-24T23:42:16.181Z,81.40
2019-01-24T23:44:45.828Z,81.50
2019-01-24T23:47:14.969Z,80.70
2019-01-24T23:49:44.393Z,81.20
2019-01-24T23:52:14.362Z,79.30
2019-01-24T23:54:43.698Z,79.60
2019-01-24T23:57:12.743Z,80.40
2019-01-24T23:59:42.148Z,78.80
